KJOT/JOT METAR and TAF weather

Enter ICAO airport designator
Station Type Date Time Source
KJOT METAR 2018/12/15 01:55 UTC NOAA

KJOT 150155Z AUTO 03008KT 3SM BR OVC005 04/04 A3022 RMK AO2 T00420040


Station Type Date Time Source
KJOT Decoded METAR 2018/12/15 01:55 UTC NOAA

Joliet, Joliet Regional Airport, IL, United States (KJOT) 41-31-05N 088-10-31W
Dec 14, 2018 - 08:55 PM EST / 2018.12.15 0155 UTC
Wind: from the NNE (030 degrees) at 9 MPH (8 KT):0
Visibility: 3 mile(s):0
Sky conditions: overcast
Weather: mist
Temperature: 39.6 F (4.2 C)
Dew Point: 39.2 F (4.0 C)
Relative Humidity: 98%
Pressure (altimeter): 30.22 in. Hg (1023 hPa)
ob: KJOT 150155Z AUTO 03008KT 3SM BR OVC005 04/04 A3022 RMK AO2 T00420040
cycle: 2

Station Type Date Time Source
KJOT TAF UTC NOAA

Error!


Example: see airport list